Flight Track Log - Related Links

Times and Time Zones

All times are in EDT time to prevent confusion due to time zone crossing. See the AAL832 flight status page for this flight to view local times or setup timezone preferences in your user account.

Time Position Orientation Groundspeed Altitude Reporting Facility
EDT Latitude Longitude Course Direction KTS MPH feet Rate Location/Type
Fri 06:04:34 PM 41.9410 -87.9060 182° South 164 189 2,200  Level FlightAware ADS-B
Fri 06:05:02 PM 41.9190 -87.9020 172° South 195 224 3,000 1,500 Climbing FlightAware ADS-B
Fri 06:05:22 PM 41.8980 -87.8980 172° South 231 266 3,400 1,615 Climbing FlightAware ADS-B
Fri 06:05:54 PM 41.8610 -87.8910 172° South 265 305 4,400 1,552 Climbing FlightAware ADS-B
Fri 06:06:20 PM 41.8290 -87.8850 172° South 281 323 4,900 1,583 Climbing FlightAware ADS-B
Fri 06:07:06 PM 41.7710 -87.8730 171° South 284 327 6,300 2,211 Climbing FlightAware ADS-B
Fri 06:07:36 PM 41.7300 -87.8660 173° South 302 348 7,700 2,786 Climbing FlightAware ADS-B
Fri 06:08:02 PM 41.6930 -87.8590 172° South 313 360 8,900 3,088 Climbing FlightAware ADS-B
Fri 06:08:44 PM 41.6320 -87.8480 172° South 315 362 11,200 3,158 Climbing FlightAware ADS-B
Fri 06:09:18 PM 41.5840 -87.8410 174° South 319 367 12,900 2,714 Climbing FlightAware ADS-B
Fri 06:10:08 PM 41.5060 -87.8300 174° South 341 392 15,000 2,242 Climbing FlightAware ADS-B
Fri 06:10:49 PM 41.4360 -87.8260 178° South 369 425 16,300 1,129 Climbing FlightAware ADS-B
Fri 06:11:33 PM 41.3710 -87.8260 180° South 372 428 16,600 1,881 Climbing FlightAware ADS-B
Fri 06:11:56 PM 41.3170 -87.8220 177° South 408 470 18,400 3,380 Climbing FlightAware ADS-B
Fri 06:12:44 PM 41.2280 -87.8030 171° South 404 465 20,600 2,523 Climbing FlightAware ADS-B
Fri 06:13:24 PM 41.1540 -87.7880 171° South 407 468 22,100 2,250 Climbing FlightAware ADS-B
Fri 06:14:04 PM 41.0760 -87.7720 171° South 412 474 23,600 2,000 Climbing FlightAware ADS-B
Fri 06:14:48 PM 40.9990 -87.7570 172° South 415 478 24,900 1,744 Climbing FlightAware ADS-B
Fri 06:15:30 PM 40.9150 -87.7470 175° South 422 486 26,100 1,725 Climbing FlightAware ADS-B
Fri 06:16:08 PM 40.8430 -87.7500 182° South 424 488 27,200 1,535 Climbing FlightAware ADS-B
Fri 06:16:56 PM 40.7450 -87.7660 187° South 430 495 28,300 1,227 Climbing FlightAware ADS-B
Fri 06:17:36 PM 40.6660 -87.7940 195° South 444 511 29,000 929 Climbing FlightAware ADS-B
Fri 06:18:20 PM 40.5790 -87.8300 197° South 456 525 29,600 929 Climbing FlightAware ADS-B
Fri 06:19:00 PM 40.4990 -87.8680 200° South 464 534 30,300 1,125 Climbing FlightAware ADS-B
Fri 06:19:40 PM 40.4190 -87.9070 200° South 468 539 31,100 1,440 Climbing FlightAware ADS-B
Fri 06:20:40 PM 40.2990 -87.9690 202° Southwest 459 528 32,700 1,608 Climbing FlightAware ADS-B
Fri 06:21:17 PM 40.2260 -88.0110 204° Southwest 453 521 33,700 1,481 Climbing FlightAware ADS-B
Fri 06:22:01 PM 40.1430 -88.0610 205° Southwest 446 513 34,700 1,326 Climbing FlightAware ADS-B
Fri 06:22:43 PM 40.0650 -88.1100 206° Southwest 445 512 35,600 951 Climbing FlightAware ADS-B
Fri 06:23:23 PM 39.9930 -88.1590 208° Southwest 447 514 36,000 279 Climbing FlightAware ADS-B
Fri 06:24:09 PM 39.9090 -88.2190 209° Southwest 448 516 36,000  Level FlightAware ADS-B
Fri 06:24:46 PM 39.8420 -88.2610 206° Southwest 445 512 36,000  Level FlightAware ADS-B
Fri 06:25:31 PM 39.7500 -88.2630 181° South 433 498 36,000  Level FlightAware ADS-B
Fri 06:26:28 PM 39.6490 -88.2200 162° South 429 494 36,000  Level FlightAware ADS-B
Fri 06:27:07 PM 39.5710 -88.1850 161° South 430 495 36,000  Level FlightAware ADS-B
Fri 06:27:49 PM 39.4940 -88.1500 161° South 429 494 36,000  Level FlightAware ADS-B
Fri 06:28:31 PM 39.4180 -88.1150 160° South 426 490 36,000  Level FlightAware ADS-B
Fri 06:29:15 PM 39.3300 -88.0750 161° South 425 489 36,000  Level FlightAware ADS-B
Fri 06:29:57 PM 39.2560 -88.0410 160° South 425 489 36,000 643 Level FlightAware ADS-B
Fri 06:30:39 PM 39.1760 -88.0050 161° South 418 481 36,900 714 Climbing FlightAware ADS-B
Fri 06:31:21 PM 39.0980 -87.9700 161° South 428 493 37,000 71 Climbing FlightAware ADS-B
Fri 06:32:03 PM 39.0170 -87.9370 162° South 444 511 37,000  Level FlightAware ADS-B
Fri 06:32:45 PM 38.9300 -87.9180 170° South 448 516 37,000  Level FlightAware ADS-B
Fri 06:33:29 PM 38.8420 -87.8980 170° South 449 517 37,000  Level FlightAware ADS-B
Fri 06:34:09 PM 38.7590 -87.8790 170° South 449 517 37,000  Level FlightAware ADS-B
Fri 06:34:50 PM 38.6760 -87.8600 170° South 449 517 37,000  Level FlightAware ADS-B
Fri 06:35:15 PM 38.6240 -87.8490 171° South 449 517 37,000  Level FlightAware ADS-B
Fri 06:36:11 PM 38.5090 -87.8230 170° South 447 514 37,000  Level FlightAware ADS-B
Fri 06:36:56 PM 38.4230 -87.8050 171° South 446 513 37,000  Level FlightAware ADS-B
Fri 06:37:37 PM 38.3350 -87.7860 170° South 444 511 37,000  Level FlightAware ADS-B
Fri 06:38:16 PM 38.2560 -87.7700 171° South 443 510 37,000  Level FlightAware ADS-B
Fri 06:39:01 PM 38.1660 -87.7520 171° South 442 509 37,000  Level FlightAware ADS-B
Fri 06:39:44 PM 38.0800 -87.7300 169° South 430 495 37,000  Level FlightAware ADS-B
Fri 06:40:20 PM 38.0150 -87.6930 156° South 426 490 37,000  Level FlightAware ADS-B
Fri 06:41:06 PM 37.9320 -87.6460 156° South 426 490 37,000  Level FlightAware ADS-B
Fri 06:41:47 PM 37.8590 -87.5980 153° Southeast 425 489 37,000  Level FlightAware ADS-B
Fri 06:42:30 PM 37.7860 -87.5490 152° Southeast 427 491 37,000  Level FlightAware ADS-B
Fri 06:43:11 PM 37.7140 -87.5010 152° Southeast 429 494 37,000  Level FlightAware ADS-B
Fri 06:43:51 PM 37.6430 -87.4550 153° Southeast 431 496 37,000  Level FlightAware ADS-B
Fri 06:44:36 PM 37.5640 -87.4030 152° Southeast 432 497 37,000  Level FlightAware ADS-B
Fri 06:45:19 PM 37.4850 -87.3570 155° Southeast 438 504 37,000  Level FlightAware ADS-B
Fri 06:46:43 PM 37.3670 -87.2980 158° South 440 506 37,000  Level FlightAware ADS-B
Fri 06:47:25 PM 37.2500 -87.2390 158° South 441 507 37,000  Level FlightAware ADS-B
Fri 06:48:00 PM 37.1800 -87.2040 158° South 442 509 37,000  Level FlightAware ADS-B
Fri 06:49:14 PM 37.0400 -87.1330 158° South 441 507 37,000  Level FlightAware ADS-B
Fri 06:50:00 PM 36.9530 -87.0890 158° South 441 507 37,000  Level FlightAware ADS-B
Fri 06:50:32 PM 36.8920 -87.0580 158° South 441 507 37,000  Level FlightAware ADS-B
Fri 06:51:19 PM 36.8030 -87.0140 158° South 446 513 37,000  Level FlightAware ADS-B
Fri 06:52:04 PM 36.7150 -86.9700 158° South 450 518 37,000  Level FlightAware ADS-B
Fri 06:52:48 PM 36.6290 -86.9280 159° South 450 518 37,000  Level FlightAware ADS-B
Fri 06:53:28 PM 36.5520 -86.8890 158° South 451 519 37,000  Level FlightAware ADS-B
Fri 06:54:04 PM 36.4830 -86.8550 158° South 452 520 37,000  Level FlightAware ADS-B
Fri 06:54:52 PM 36.3890 -86.8090 158° South 451 519 37,000  Level FlightAware ADS-B
Fri 06:55:32 PM 36.3110 -86.7700 158° South 452 520 37,000  Level FlightAware ADS-B
Fri 06:56:17 PM 36.2310 -86.7310 159° South 455 524 37,000  Level FlightAware ADS-B
Fri 06:56:58 PM 36.1440 -86.6850 157° South 453 521 37,000  Level FlightAware ADS-B
Fri 06:57:36 PM 36.0790 -86.6310 146° Southeast 452 520 37,000  Level FlightAware ADS-B
Fri 06:58:20 PM 36.0050 -86.5620 143° Southeast 455 524 37,000 400 Level FlightAware ADS-B
Fri 06:59:06 PM 35.9260 -86.4890 143° Southeast 456 525 37,600 929 Climbing FlightAware ADS-B
Fri 06:59:44 PM 35.8630 -86.4300 143° Southeast 451 519 38,300 1,135 Climbing FlightAware ADS-B
Fri 07:00:20 PM 35.8028 -86.3749 143° Southeast 455 524 39,000 636 Climbing FlightAware ADS-B
Fri 07:00:50 PM 35.7533 -86.3294 143° Southeast 446 513 39,000  Level FlightAware ADS-B
Fri 07:01:22 PM 35.7002 -86.2810 143° Southeast 445 512 39,000  Level FlightAware ADS-B
Fri 07:01:52 PM 35.6506 -86.2354 143° Southeast 445 512 39,000  Level FlightAware ADS-B
Fri 07:02:26 PM 35.5956 -86.1847 143° Southeast 446 513 39,000  Level FlightAware ADS-B
Fri 07:03:16 PM 35.5140 -86.1090 143° Southeast 446 513 39,000  Level FlightAware ADS-B
Fri 07:04:00 PM 35.4400 -86.0420 144° Southeast 448 516 39,000  Level FlightAware ADS-B
Fri 07:04:21 PM 35.4055 -86.0105 143° Southeast 446 513 39,000  Level FlightAware ADS-B
Fri 07:04:51 PM 35.3544 -85.9640 143° Southeast 454 522 39,000  Level FlightAware ADS-B
Fri 07:05:21 PM 35.3029 -85.9173 143° Southeast 460 529 39,000  Level FlightAware ADS-B
Fri 07:05:52 PM 35.2502 -85.8695 143° Southeast 460 529 39,000  Level FlightAware ADS-B
Fri 07:06:37 PM 35.1733 -85.7998 143° Southeast 460 529 39,000  Level FlightAware ADS-B
Fri 07:07:08 PM 35.1215 -85.7531 144° Southeast 460 529 39,000  Level FlightAware ADS-B
Fri 07:07:38 PM 35.0694 -85.7060 143° Southeast 460 529 39,000  Level FlightAware ADS-B
Fri 07:08:09 PM 35.0164 -85.6582 144° Southeast 458 527 39,000  Level FlightAware ADS-B
Fri 07:08:40 PM 34.9643 -85.6113 144° Southeast 458 527 39,000  Level FlightAware ADS-B
Fri 07:09:11 PM 34.9115 -85.5641 144° Southeast 458 527 39,000  Level FlightAware ADS-B
Fri 07:09:41 PM 34.8597 -85.5176 144° Southeast 458 527 39,000  Level FlightAware ADS-B
Fri 07:10:14 PM 34.8028 -85.4664 144° Southeast 457 526 39,000  Level FlightAware ADS-B
Fri 07:11:04 PM 34.7199 -85.3926 144° Southeast 454 522 39,000  Level FlightAware ADS-B
Fri 07:11:34 PM 34.6680 -85.3464 144° Southeast 453 521 39,000  Level FlightAware ADS-B
Fri 07:12:11 PM 34.6057 -85.2909 144° Southeast 451 519 39,000  Level FlightAware ADS-B
Fri 07:12:53 PM 34.5346 -85.2281 144° Southeast 451 519 39,000  Level FlightAware ADS-B
Fri 07:13:40 PM 34.4570 -85.1590 144° Southeast 449 517 39,000  Level FlightAware ADS-B
Fri 07:14:23 PM 34.3850 -85.0960 144° Southeast 451 519 39,000  Level FlightAware ADS-B
Fri 07:14:39 PM 34.3576 -85.0711 143° Southeast 452 520 39,000  Level FlightAware ADS-B
Fri 07:15:10 PM 34.3052 -85.0249 144° Southeast 455 524 39,000  Level FlightAware ADS-B
Fri 07:15:40 PM 34.2533 -84.9794 144° Southeast 457 526 39,000  Level FlightAware ADS-B
Fri 07:16:14 PM 34.1951 -84.9282 144° Southeast 457 526 39,000  Level FlightAware ADS-B
Fri 07:16:45 PM 34.1429 -84.8824 144° Southeast 458 527 39,000  Level FlightAware ADS-B
Fri 07:17:16 PM 34.0886 -84.8349 144° Southeast 458 527 39,000  Level FlightAware ADS-B
Fri 07:17:59 PM 34.0150 -84.7710 144° Southeast 457 526 39,000  Level FlightAware ADS-B
Fri 07:18:43 PM 33.9400 -84.7050 144° Southeast 455 524 39,000  Level FlightAware ADS-B
Fri 07:19:22 PM 33.8900 -84.6620 144° Southeast 455 524 39,000  Level FlightAware ADS-B
Fri 07:20:05 PM 33.8010 -84.5840 144° Southeast 455 524 39,000  Level FlightAware ADS-B
Fri 07:20:47 PM 33.7281 -84.5213 144° Southeast 454 522 39,000  Level FlightAware ADS-B
Fri 07:21:18 PM 33.6762 -84.4765 144° Southeast 453 521 39,000  Level FlightAware ADS-B
Fri 07:21:49 PM 33.6205 -84.4353 148° Southeast 451 519 39,000  Level FlightAware ADS-B
Fri 07:22:24 PM 33.5539 -84.4037 158° South 450 518 39,000  Level FlightAware ADS-B
Fri 07:23:37 PM 33.4120 -84.3440 161° South 449 517 39,000  Level FlightAware ADS-B
Fri 07:24:19 PM 33.3320 -84.3110 161° South 449 517 39,000  Level FlightAware ADS-B
Fri 07:24:59 PM 33.2540 -84.2790 161° South 449 517 39,000  Level FlightAware ADS-B
Fri 07:25:43 PM 33.1710 -84.2440 161° South 447 514 39,000  Level FlightAware ADS-B
Fri 07:26:22 PM 33.0900 -84.2110 161° South 446 513 39,000  Level FlightAware ADS-B
Fri 07:27:06 PM 33.0020 -84.1740 161° South 448 516 39,000  Level FlightAware ADS-B
Fri 07:27:46 PM 32.9230 -84.1420 161° South 447 514 39,000  Level FlightAware ADS-B
Fri 07:28:28 PM 32.8420 -84.1080 161° South 447 514 39,000  Level FlightAware ADS-B
Fri 07:29:10 PM 32.7600 -84.0740 161° South 446 513 39,000  Level FlightAware ADS-B
Fri 07:29:52 PM 32.6770 -84.0400 161° South 445 512 39,000  Level FlightAware ADS-B
Fri 07:30:32 PM 32.6000 -84.0090 161° South 444 511 39,000  Level FlightAware ADS-B
Fri 07:31:16 PM 32.5140 -83.9740 161° South 443 510 39,000  Level FlightAware ADS-B
Fri 07:31:58 PM 32.4340 -83.9410 161° South 442 509 39,000  Level FlightAware ADS-B
Fri 07:32:40 PM 32.3510 -83.9070 161° South 441 507 39,000  Level FlightAware ADS-B
Fri 07:33:18 PM 32.2780 -83.8770 161° South 440 506 39,000  Level FlightAware ADS-B
Fri 07:34:12 PM 32.1830 -83.8380 161° South 440 506 39,000  Level FlightAware ADS-B
Fri 07:35:01 PM 32.1040 -83.8040 160° South 440 506 39,000  Level FlightAware ADS-B
Fri 07:35:43 PM 32.0350 -83.7740 160° South 440 506 39,000  Level FlightAware ADS-B
Fri 07:36:19 PM 31.9770 -83.7490 160° South 440 506 39,000  Level FlightAware ADS-B
Fri 07:37:09 PM 31.8950 -83.7140 160° South 440 506 39,000  Level FlightAware ADS-B
Fri 07:37:45 PM 31.8370 -83.6890 160° South 440 506 39,000  Level FlightAware ADS-B
Fri 07:38:35 PM 31.7560 -83.6540 160° South 440 506 39,000  Level FlightAware ADS-B
Fri 07:39:11 PM 31.6970 -83.6290 160° South 440 506 39,000  Level FlightAware ADS-B
Fri 07:40:13 PM 31.5960 -83.5860 160° South 440 506 39,000  Level FlightAware ADS-B
Fri 07:40:48 PM 31.5390 -83.5620 160° South 440 506 39,000  Level FlightAware ADS-B
Fri 07:41:35 PM 31.4630 -83.5290 160° South 440 506 39,000  Level FlightAware ADS-B
Fri 07:42:10 PM 31.4060 -83.5050 160° South 440 506 39,000  Level FlightAware ADS-B
Fri 07:42:59 PM 31.3260 -83.4710 160° South 440 506 39,000  Level FlightAware ADS-B
Fri 07:43:35 PM 31.2680 -83.4460 160° South 440 506 39,000  Level FlightAware ADS-B
Fri 07:45:00 PM 31.0056 -83.1181 160° South 449 517 39,000  Level Jacksonville Center
Fri 07:46:00 PM 30.8969 -83.0572 154° Southeast 442 509 39,000 -50 Level Jacksonville Center
Fri 07:47:00 PM 30.7739 -83.0061 160° South 430 495 38,900  Descending Jacksonville Center
Fri 07:48:00 PM 30.6569 -82.9700 165° South 430 495 39,000  Climbing Jacksonville Center
Fri 07:49:00 PM 30.5358 -82.9264 163° South 442 509 38,900 -50 Descending Jacksonville Center
Fri 07:50:00 PM 30.4169 -82.8878 164° South 442 509 38,900 50 Level Jacksonville Center
Fri 07:51:01 PM 30.3000 -82.8469 163° South 442 509 39,000 14 Climbing Jacksonville Center
Fri 07:56:55 PM 29.5940 -82.6120 163° South 436 502 39,000  Level FlightAware ADS-B
Fri 07:57:35 PM 29.5170 -82.5860 164° South 438 504 39,000  Level FlightAware ADS-B
Fri 07:58:05 PM 29.4600 -82.5670 164° South 439 505 39,000  Level FlightAware ADS-B
Fri 07:58:50 PM 29.3780 -82.5400 164° South 433 498 39,000  Level FlightAware ADS-B
Fri 07:59:25 PM 29.2980 -82.5640 195° South 433 498 39,000  Level FlightAware ADS-B
Fri 08:00:00 PM 29.2300 -82.5890 198° South 438 504 39,000  Level FlightAware ADS-B
Fri 08:00:40 PM 29.1520 -82.6170 197° South 439 505 39,000  Level FlightAware ADS-B
Fri 08:01:25 PM 29.0660 -82.6490 198° South 440 506 39,000  Level FlightAware ADS-B
Fri 08:02:05 PM 28.9880 -82.6780 198° South 441 507 39,000  Level FlightAware ADS-B
Fri 08:02:45 PM 28.9100 -82.7070 198° South 443 510 39,000  Level FlightAware ADS-B
Fri 08:03:30 PM 28.8210 -82.7390 197° South 443 510 39,000  Level FlightAware ADS-B
Fri 08:04:20 PM 28.7330 -82.7710 198° South 443 510 39,000  Level FlightAware ADS-B
Fri 08:05:05 PM 28.6360 -82.8080 199° South 444 511 39,000  Level FlightAware ADS-B
Fri 08:05:50 PM 28.5470 -82.8360 195° South 435 501 39,000  Level FlightAware ADS-B
Fri 08:06:30 PM 28.4690 -82.8340 179° South 435 501 39,000  Level FlightAware ADS-B
Fri 08:07:15 PM 28.3730 -82.8270 176° South 433 498 39,000  Level FlightAware ADS-B
Fri 08:07:55 PM 28.2920 -82.8220 177° South 432 497 39,000  Level FlightAware ADS-B
Fri 08:08:40 PM 28.1990 -82.8150 176° South 431 496 39,000  Level FlightAware ADS-B
Fri 08:09:15 PM 28.1290 -82.8100 176° South 438 504 39,000  Level FlightAware ADS-B
Fri 08:10:00 PM 28.0380 -82.8040 177° South 438 504 39,000  Level FlightAware ADS-B
Fri 08:10:40 PM 27.9590 -82.7990 177° South 437 503 39,000  Level FlightAware ADS-B
Fri 08:11:37 PM 27.8460 -82.7930 177° South 437 503 39,000  Level FlightAware ADS-B
Fri 08:12:10 PM 27.7750 -82.7900 178° South 437 503 39,000  Level FlightAware ADS-B
Fri 08:12:55 PM 27.6840 -82.7780 173° South 435 501 39,000  Level FlightAware ADS-B
Fri 08:13:40 PM 27.6010 -82.7370 156° South 441 507 39,000  Level FlightAware ADS-B
Fri 08:14:20 PM 27.5300 -82.6980 154° Southeast 432 497 39,000 -300 Level FlightAware ADS-B
Fri 08:15:00 PM 27.4640 -82.6370 141° Southeast 444 511 38,600 -733 Descending FlightAware ADS-B
Fri 08:15:50 PM 27.3900 -82.5560 136° Southeast 437 503 37,900 -641 Descending FlightAware ADS-B
Fri 08:16:43 PM 27.3240 -82.4830 135° Southeast 445 512 37,500 -743 Descending FlightAware ADS-B
Fri 08:17:35 PM 27.2430 -82.3960 136° Southeast 444 511 36,600 -947 Descending FlightAware ADS-B
Fri 08:18:37 PM 27.1500 -82.2970 137° Southeast 443 510 35,700 -1,069 Descending FlightAware ADS-B
Fri 08:19:25 PM 27.0700 -82.2120 137° Southeast 34,400 -1,157 Descending FlightAware ADS-B
Fri 08:20:57 PM 26.9310 -82.0630 136° Southeast 448 516 33,000 -955 Descending FlightAware ADS-B
Fri 08:21:37 PM 26.8740 -81.9950 133° Southeast 451 519 32,300 -975 Descending FlightAware ADS-B
Fri 08:22:17 PM 26.8170 -81.9270 133° Southeast 456 525 31,700 -970 Descending FlightAware ADS-B
Fri 08:23:16 PM 26.7380 -81.8260 131° Southeast 445 512 30,700 -1,129 Descending FlightAware ADS-B
Fri 08:23:58 PM 26.6890 -81.7610 130° Southeast 440 506 29,800 -1,929 Descending FlightAware ADS-B
Fri 08:24:40 PM 26.6280 -81.6810 130° Southeast 431 496 28,000 -2,338 Descending FlightAware ADS-B
Fri 08:25:15 PM 26.5850 -81.6240 130° Southeast 424 488 26,800 -857 Descending FlightAware ADS-B
Fri 08:26:04 PM 26.5320 -81.5540 130° Southeast 424 488 26,800 -2,200 Level FlightAware ADS-B
Fri 08:26:45 PM 26.4720 -81.4710 129° Southeast 404 465 23,500 -3,481 Descending FlightAware ADS-B
Fri 08:27:25 PM 26.4250 -81.4080 130° Southeast 396 456 22,100 -2,118 Descending FlightAware ADS-B
Fri 08:28:10 PM 26.3710 -81.3380 131° Southeast 382 440 20,500 -2,047 Descending FlightAware ADS-B
Fri 08:28:50 PM 26.3250 -81.2780 131° Southeast 384 442 19,200 -2,047 Descending FlightAware ADS-B
Fri 08:29:35 PM 26.2630 -81.2200 140° Southeast 380 437 17,600 -2,100 Descending FlightAware ADS-B
Fri 08:30:30 PM 26.1910 -81.1510 139° Southeast 369 425 15,700 -1,416 Descending FlightAware ADS-B
Fri 08:31:04 PM 26.1510 -81.1140 140° Southeast 373 429 15,500 -2,000 Descending FlightAware ADS-B
Fri 08:31:45 PM 26.0810 -81.0800 156° South 348 400 13,200 -2,581 Descending FlightAware ADS-B
Fri 08:32:30 PM 26.0180 -81.0420 152° Southeast 345 397 11,800 -1,906 Descending FlightAware ADS-B
Fri 08:33:10 PM 25.9610 -81.0080 152° Southeast 332 382 10,500 -1,271 Descending FlightAware ADS-B
Fri 08:33:55 PM 25.9060 -80.9650 145° Southeast 303 349 10,000 -500 Descending FlightAware ADS-B
Fri 08:34:10 PM 25.8980 -80.9440 113° Southeast 286 329 10,000 -878 Level FlightAware ADS-B
Fri 08:34:36 PM 25.8930 -80.9080 99° East 278 320 9,400 -1,636 Descending FlightAware ADS-B
Fri 08:35:05 PM 25.8890 -80.8670 96° East 276 318 8,500 -1,565 Descending FlightAware ADS-B
Fri 08:35:45 PM 25.8840 -80.8120 96° East 264 304 7,600 -1,569 Descending FlightAware ADS-B
Fri 08:36:10 PM 25.8800 -80.7790 98° East 263 303 6,800 -1,220 Descending FlightAware ADS-B
Fri 08:36:44 PM 25.8830 -80.7340 86° East 235 270 6,400 -1,000 Descending FlightAware ADS-B
Fri 08:37:10 PM 25.8850 -80.7040 86° East 225 259 5,800 -1,286 Descending FlightAware ADS-B
Fri 08:37:40 PM 25.8880 -80.6690 85° East 224 258 5,200 -1,300 Descending FlightAware ADS-B
Fri 08:38:10 PM 25.8910 -80.6350 84° East 222 255 4,500 -1,418 Descending FlightAware ADS-B
Fri 08:38:35 PM 25.8930 -80.6070 85° East 221 254 3,900 -1,333 Descending FlightAware ADS-B
Fri 08:39:04 PM 25.8960 -80.5730 84° East 219 252 3,300 -1,077 Descending FlightAware ADS-B
Fri 08:39:14 PM 25.8960 -80.5680 90° East 219 252 3,200 -833 Descending FlightAware ADS-B
Fri 08:39:40 PM 25.8990 -80.5340 84° East 210 242 2,800 -329 Descending FlightAware ADS-B
Fri 08:40:27 PM 25.8950 -80.4900 96° East 176 203 2,800  Level FlightAware ADS-B
Fri 08:40:44 PM 25.8880 -80.4770 121° Southeast 174 200 2,800  Level FlightAware ADS-B
Fri 08:41:08 PM 25.8780 -80.4570 119° Southeast 174 200 2,800 -231 Level FlightAware ADS-B
Fri 08:41:36 PM 25.8670 -80.4360 120° Southeast 174 200 2,600 -643 Descending FlightAware ADS-B
Fri 08:42:04 PM 25.8560 -80.4140 119° Southeast 171 197 2,200 -933 Descending FlightAware ADS-B
Fri 08:42:21 PM 25.8500 -80.4010 117° Southeast 169 194 1,900 -933 Descending FlightAware ADS-B
Fri 08:42:49 PM 25.8390 -80.3810 121° Southeast 163 188 1,500 -857 Descending FlightAware ADS-B
Fri 08:43:10 PM 25.8310 -80.3650 119° Southeast 148 170 1,200 -906 Descending FlightAware ADS-B
Fri 08:43:42 PM 25.8210 -80.3450 119° Southeast 141 162 700 -787 Descending FlightAware ADS-B
Fri 08:44:11 PM 25.8120 -80.3270 119° Southeast 140 161 400 -667 Descending FlightAware ADS-B
Fri 08:44:27 PM 25.8070 -80.3180 122° Southeast 141 162 200 -750 Descending FlightAware ADS-B
Fri 08:44:55 PM 25.7980 -80.3000 119° Southeast 144 166 -429 Descending FlightAware ADS-B
Fri 08:45:24 PM 25.7910 -80.2860 119° Southeast 37 43  Level FlightAware ADS-B

Login

Don't have an account? Register now (free) for customized features, flight alerts, and more!